Map

Track Data

SID SEASON NUMBER BASIN SUBBASIN NAME ISO_TIME NATURE LAT LON WMO_WIND WMO_PRES WMO_AGENCY TRACK_TYPE DIST2LAND LANDFALL IFLAG USA_AGENCY USA_ATCF_ID USA_LAT USA_LON USA_RECORD USA_STATUS USA_WIND USA_PRES USA_SSHS USA_R34_NE USA_R34_SE USA_R34_SW USA_R34_NW USA_R50_NE USA_R50_SE USA_R50_SW USA_R50_NW USA_R64_NE USA_R64_SE USA_R64_SW USA_R64_NW USA_POCI USA_ROCI USA_RMW USA_EYE TOKYO_LAT TOKYO_LON TOKYO_GRADE TOKYO_WIND TOKYO_PRES TOKYO_R50_DIR TOKYO_R50_LONG TOKYO_R50_SHORT TOKYO_R30_DIR TOKYO_R30_LONG TOKYO_R30_SHORT TOKYO_LAND CMA_LAT CMA_LON CMA_CAT CMA_WIND CMA_PRES HKO_LAT HKO_LON HKO_CAT HKO_WIND HKO_PRES NEWDELHI_LAT NEWDELHI_LON NEWDELHI_GRADE NEWDELHI_WIND NEWDELHI_PRES NEWDELHI_CI NEWDELHI_DP NEWDELHI_POCI REUNION_LAT REUNION_LON REUNION_TYPE REUNION_WIND REUNION_PRES REUNION_TNUM REUNION_CI REUNION_RMW REUNION_R34_NE REUNION_R34_SE REUNION_R34_SW REUNION_R34_NW REUNION_R50_NE REUNION_R50_SE REUNION_R50_SW REUNION_R50_NW REUNION_R64_NE REUNION_R64_SE REUNION_R64_SW REUNION_R64_NW BOM_LAT BOM_LON BOM_TYPE BOM_WIND BOM_PRES BOM_TNUM BOM_CI BOM_RMW BOM_R34_NE BOM_R34_SE BOM_R34_SW BOM_R34_NW BOM_R50_NE BOM_R50_SE BOM_R50_SW BOM_R50_NW BOM_R64_NE BOM_R64_SE BOM_R64_SW BOM_R64_NW BOM_ROCI BOM_POCI BOM_EYE BOM_POS_METHOD BOM_PRES_METHOD NADI_LAT NADI_LON NADI_CAT NADI_WIND NADI_PRES WELLINGTON_LAT WELLINGTON_LON WELLINGTON_WIND WELLINGTON_PRES DS824_LAT DS824_LON DS824_STAGE DS824_WIND DS824_PRES TD9636_LAT TD9636_LON TD9636_STAGE TD9636_WIND TD9636_PRES TD9635_LAT TD9635_LON TD9635_WIND TD9635_PRES TD9635_ROCI NEUMANN_LAT NEUMANN_LON NEUMANN_CLASS NEUMANN_WIND NEUMANN_PRES MLC_LAT MLC_LON MLC_CLASS MLC_WIND MLC_PRES USA_GUST BOM_GUST BOM_GUST_PER REUNION_GUST REUNION_GUST_PER USA_SEAHGT USA_SEARAD_NE USA_SEARAD_SE USA_SEARAD_SW USA_SEARAD_NW STORM_SPEED STORM_DIR
1944015S23037 1944 4 SI MM NOT_NAMED 1944-01-15 06:00:00 TS -22.7000 36.8000 main 124 123 _________OO___ -1 -22.7000 36.8000 TC 25 -22.7000 36.8000 7 7 144
1944015S23037 1944 4 SI MM NOT_NAMED 1944-01-15 09:00:00 TS -22.9879 37.0253 main 143 143 _________PP___ -1 -23.0202 37.0521 TC 25 -22.9556 36.9985 7 7 142
1944015S23037 1944 4 SI MM NOT_NAMED 1944-01-15 12:00:00 TS -23.2544 37.2639 main 179 179 _________OP___ -1 -23.3000 37.3000 TC 25 -23.2089 37.2278 7 7 137
1944015S23037 1944 4 SI MM NOT_NAMED 1944-01-15 15:00:00 TS -23.4863 37.5367 main 205 205 _________PP___ -1 -23.5147 37.5553 TC 25 -23.4578 37.5181 7 7 127
1944015S23037 1944 4 SI MM NOT_NAMED 1944-01-15 18:00:00 TS -23.7000 37.9000 main 245 245 _________OO___ -1 -23.7000 37.9000 TC 25 -23.7000 37.9000 7 9 118
1944015S23037 1944 4 SI MM NOT_NAMED 1944-01-15 21:00:00 TS -23.9131 38.4046 main 294 294 _________PP___ -1 -23.8927 38.4201 TC 25 -23.9334 38.3892 7 11 114
1944015S23037 1944 4 SI MM NOT_NAMED 1944-01-16 00:00:00 TS -24.1296 38.9709 main 355 355 _________OP___ -1 -24.1000 39.0000 TC 25 -24.1593 38.9419 7 11 114
1944015S23037 1944 4 SI MM NOT_NAMED 1944-01-16 03:00:00 TS -24.3614 39.5181 main 406 378 _________PP___ -1 -24.3425 39.5375 TC 25 -24.3803 39.4987 7 11 117
1944015S23037 1944 4 SI MM NOT_NAMED 1944-01-16 06:00:00 TS -24.6000 40.0000 main 378 352 _________OO___ -1 -24.6000 40.0000 TC 25 -24.6000 40.0000 1 9 123
1944015S23037 1944 4 SI MM NOT_NAMED 1944-01-16 09:00:00 TS -24.8426 40.3438 main 352 325 _________PP___ -1 -24.8572 40.3302 TC 25 -24.8279 40.3574 1 7 130
1944015S23037 1944 4 SI MM NOT_NAMED 1944-01-16 12:00:00 TS -25.0780 40.6268 main 327 302 _________OP___ -1 -25.1000 40.6000 TC 25 -25.0560 40.6537 1 7 131
1944015S23037 1944 4 SI MM NOT_NAMED 1944-01-16 15:00:00 TS -25.2943 40.9078 main 302 280 _________PP___ -1 -25.3074 40.8927 TC 25 -25.2812 40.9230 1 7 129
1944015S23037 1944 4 SI MM NOT_NAMED 1944-01-16 18:00:00 TS -25.5000 41.2000 main 280 261 _________OO___ -1 -25.5000 41.2000 TC 25 -25.5000 41.2000 1 7 126
1944015S23037 1944 4 SI MM NOT_NAMED 1944-01-16 21:00:00 TS -25.6950 41.5215 main 261 238 _________PP___ -1 -25.7000 41.5426 TC 25 -25.6901 41.5004 1 7 123
1944015S23037 1944 4 SI MM NOT_NAMED 1944-01-17 00:00:00 TS -25.8881 41.8598 main 233 218 _________OP___ -1 -25.9000 41.9000 TC 25 -25.8762 41.8195 1 7 122
1944015S23037 1944 4 SI MM NOT_NAMED 1944-01-17 03:00:00 TS -26.0794 42.1997 main 218 201 _________PP___ -1 -26.0847 42.2205 TC 25 -26.0742 42.1788 1 8 122
1944015S23037 1944 4 SI MM NOT_NAMED 1944-01-17 06:00:00 TS -26.3000 42.6000 main 201 193 _________OO___ -1 -26.3000 42.6000 TC 25 -26.3000 42.6000 1 10 122
1944015S23037 1944 4 SI MM NOT_NAMED 1944-01-17 09:00:00 TS -26.5886 43.1168 main 194 185 _________PP___ -1 -26.5850 43.1125 TC 25 -26.5923 43.1212 1 12 122
1944015S23037 1944 4 SI MM NOT_NAMED 1944-01-17 12:00:00 TS -26.9043 43.7016 main 191 188 _________OP___ -1 -26.9000 43.7000 TC 25 -26.9085 43.7031 1 12 121
1944015S23037 1944 4 SI MM NOT_NAMED 1944-01-17 15:00:00 TS -27.2214 44.3080 main 199 199 _________PP___ -1 -27.2225 44.3073 TC 25 -27.2204 44.3087 1 12 119
1944015S23037 1944 4 SI MM NOT_NAMED 1944-01-17 18:00:00 TS -27.5000 44.9000 main 214 213 _________OO___ -1 -27.5000 44.9000 TC 25 -27.5000 44.9000 1 11 115
1944015S23037 1944 4 SI MM NOT_NAMED 1944-01-17 21:00:00 TS -27.6666 45.4042 main 234 234 _________PP___ -1 -27.6646 45.4156 TC 25 -27.6685 45.3927 1 9 109
1944015S23037 1944 4 SI MM NOT_NAMED 1944-01-18 00:00:00 TS -27.8049 45.8839 main 248 248 _________OP___ -1 -27.8000 45.9000 TC 25 -27.8098 45.8679 1 9 109
1944015S23037 1944 4 SI MM NOT_NAMED 1944-01-18 03:00:00 TS -27.9667 46.3648 main 282 282 _________PP___ -1 -27.9620 46.3708 TC 25 -27.9714 46.3588 1 10 114
1944015S23037 1944 4 SI MM NOT_NAMED 1944-01-18 06:00:00 TS -28.2000 46.9000 main 321 321 _________OO___ -1 -28.2000 46.9000 TC 25 -28.2000 46.9000 1 12 119
1944015S23037 1944 4 SI MM NOT_NAMED 1944-01-18 09:00:00 TS -28.5604 47.5654 main 387 387 _________PP___ -1 -28.5626 47.5699 TC 25 -28.5581 47.5608 1 15 123
1944015S23037 1944 4 SI MM NOT_NAMED 1944-01-18 12:00:00 TS -28.9920 48.2874 main 449 449 _________OP___ -1 -29.0000 48.3000 TC 25 -28.9839 48.2749 1 15 125
1944015S23037 1944 4 SI MM NOT_NAMED 1944-01-18 15:00:00 TS -29.4462 49.0085 main 516 516 _________PP___ -1 -29.4499 49.0151 TC 25 -29.4425 49.0019 1 15 126
1944015S23037 1944 4 SI MM NOT_NAMED 1944-01-18 18:00:00 TS -29.9000 49.7000 main 597 597 _________OO___ -1 -29.9000 49.7000 TC 25 -29.9000 49.7000 1 14 127
1944015S23037 1944 4 SI MM NOT_NAMED 1944-01-18 21:00:00 TS -30.3187 50.3298 main 665 665 _________PP___ -1 -30.3071 50.3232 TC 25 -30.3302 50.3364 1 13 128
1944015S23037 1944 4 SI MM NOT_NAMED 1944-01-19 00:00:00 TS -30.7175 50.9096 main 733 733 _________OP___ -1 -30.7000 50.9000 TC 25 -30.7349 50.9192 1 13 129
1944015S23037 1944 4 SI MM NOT_NAMED 1944-01-19 03:00:00 TS -31.1101 51.4607 main 801 801 _________PP___ -1 -31.0980 51.4540 TC 25 -31.1223 51.4673 1 12 130
1944015S23037 1944 4 SI MM NOT_NAMED 1944-01-19 06:00:00 TS -31.5000 52.0000 main 865 _________OO___ -1 -31.5000 52.0000 TC 25 -31.5000 52.0000 1 12 130

About IBTrACS Database

This database is a web-friendly format of International Best Track Archive for Climate Stewardship (IBTrACS), a global best track data archive curated by NOAA dating back to 1842.

Updated: 2021-11-26